AirNav   Everest Fuels
 
 1213 users online  

KCNO Chino Airport
Chino, California, USA

GOING TO CHINO?


FAA INFORMATION EFFECTIVE 10 SEPTEMBER 2020

Location

FAA Identifier: CNO
Lat/Long: 33-58-29.2055N 117-38-11.3382W
33-58.486758N 117-38.188970W
33.9747793,-117.6364828
(estimated)
Elevation: 650 ft. / 198.1 m (surveyed)
Variation: 14E (1980)
From city: 3 miles SE of CHINO, CA
Time zone: UTC -7 (UTC -8 during Standard Time)
Zip code: 91710

Airport Operations

Airport use: Open to the public
Activation date: 06/1941
Control tower: yes
ARTCC: LOS ANGELES CENTER
FSS: RIVERSIDE FLIGHT SERVICE STATION
NOTAMs facility: CNO (NOTAM-D service available)
Attendance: CONTINUOUS
Pattern altitude: 1400 ft. MSL
TWIN ENGINE TPA 1350 FT AGL.
Wind indicator: lighted
Segmented circle: no
Lights: WHEN ATCT CLSD MIRL RY 03/21, HIRL RY 08L/26R, MIRL 08R/26L ARE TURNED ON. PAPI RYS 26R, 08R, 26L, 03, 21 AND REIL RYS 03 & 21 OPER CONTINUOUSLY.
Beacon: white-green (lighted land airport)
Operates sunset to sunrise.

Airport Communications

CTAF: 118.5
UNICOM: 122.95
ATIS: 125.85
WX ASOS: PHONE 909-393-5823
CHINO GROUND: 121.6 [0700-2100]
CHINO TOWER: 118.5 [0700-2100]
SOCAL APPROACH: 135.4
SOCAL DEPARTURE: 135.4
WX AWOS-3PT at AJO (5 nm S): 132.175 (951-340-4764)
WX ASOS at ONT (5 nm N): PHONE 909-937-2186
WX AWOS-3P at CCB (9 nm N): 119.525 (909-985-4731)
WX ASOS at RAL (10 nm E): 128.8 (951-352-4392)
WX AWOS-3PT at POC (10 nm NW): 124.4 (909-596-1523)
WX ASOS at FUL (18 nm W): PHONE 714-870-1372

Nearby radio navigation aids

VOR radial/distance  VOR name  Freq  Var
PDZr288/6.3PARADISE VORTAC112.2015E
RALr263/(9.4)RIVERSIDE VOR112.4014E
POMr115/9.7POMONA VORTAC110.4015E
ELBr001/18.5EL TORO VOR/DME117.2014E
SLIr046/23.8SEAL BEACH VORTAC115.7015E
HDFr284/(25.4)HOMELAND VOR113.4014E
VCVr184/39.1VICTORVILLE VOR/DME109.0514E
LAXr071/39.7LOS ANGELES VORTAC113.6015E

 
NDB name  Hdg/Dist  Freq  Var  ID
PETIS236/14.339714ESB ... -...

Airport Services

Fuel available: 100LL JET-A
SELF-SERVICE FUEL AVBL 24 HRS.
Parking: hangars and tiedowns
Airframe service: MAJOR
Powerplant service: MAJOR
Bottled oxygen: NONE
Bulk oxygen: LOW

Runway Information

Runway 8R/26L

Dimensions: 7000 x 150 ft. / 2134 x 46 m
Surface: asphalt/grooved, in good condition
Weight bearing capacity: 
Single wheel: 75.0
Double wheel: 150.0
Double tandem: 215.0
Runway edge lights: medium intensity
RUNWAY 8R  RUNWAY 26L
Latitude: 33-58.410758N33-58.422365N
Longitude: 117-38.803620W117-37.418470W
Elevation: 619.5 ft.636.5 ft.
Traffic pattern: rightleft
Runway heading: 075 magnetic, 089 true255 magnetic, 269 true
Markings: nonprecision, in good conditionnonprecision, in good condition
Visual slope indicator: 4-light PAPI on left (3.00 degrees glide path)4-light PAPI on left (3.00 degrees glide path)
Touchdown point: yes, no lightsyes, no lights
Obstructions: none55 ft. trees, 1320 ft. from runway, 75 ft. left of centerline, 20:1 slope to clear

Runway 3/21

Dimensions: 4919 x 150 ft. / 1499 x 46 m
Surface: asphalt, in good condition
Weight bearing capacity: 
Single wheel: 21.0
Double wheel: 130.0
Dual double tandem: 50.0
Runway edge lights: medium intensity
RUNWAY 3  RUNWAY 21
Latitude: 33-58.237833N33-58.817152N
Longitude: 117-38.506530W117-37.825252W
Elevation: 610.4 ft.649.7 ft.
Traffic pattern: rightleft
Runway heading: 030 magnetic, 044 true210 magnetic, 224 true
Markings: nonprecision, in good conditionnonprecision, in good condition
Visual slope indicator: 4-light PAPI on left (3.00 degrees glide path)4-light PAPI on left (3.00 degrees glide path)
Runway end identifier lights: yesyes
Touchdown point: yes, no lightsyes, no lights

Runway 8L/26R

Dimensions: 4858 x 150 ft. / 1481 x 46 m
Surface: asphalt, in good condition
Weight bearing capacity: 
Single wheel: 12.0
Runway edge lights: high intensity
RUNWAY 8L  RUNWAY 26R
Latitude: 33-58.542568N33-58.550752N
Longitude: 117-38.805298W117-37.843952W
Elevation: 617.2 ft.636.1 ft.
Traffic pattern: rightleft
Runway heading: 075 magnetic, 089 true255 magnetic, 269 true
Markings: basic, in good conditionprecision, in good condition
Visual slope indicator: 4-light PAPI on left (3.00 degrees glide path)4-light PAPI on left (3.00 degrees glide path)
Runway end identifier lights: nono
Touchdown point: yes, no lightsyes, no lights
Instrument approach: ILS
Obstructions: 65 ft. trees, 1571 ft. from runway, 140 ft. left of centerline, 21:1 slope to clear60 ft. trees, 2150 ft. from runway, 250 ft. left of centerline, 32:1 slope to clear

Airport Ownership and Management from official FAA records

Ownership: Publicly-owned
Owner: COUNTY OF SAN BERNARDINO
7000 MERRILL AVENUE BOX 1
CHINO, CA 91710-9091
Phone 909-597-3910
Manager: CYLE WOODRUFF
7000 MERRILL BOX 1
CHINO, CA 91710-9091
Phone 909-597-3910
AIRPORT OPERATIONS MANAGER

Airport Operational Statistics

Aircraft based on the field: 218
Single engine airplanes: 192
Multi engine airplanes: 23
Jet airplanes: 1
Helicopters: 2
    
Aircraft operations: avg 451/day *
62% local general aviation
37% transient general aviation
<1% air taxi
* for 12-month period ending 30 September 2016

Additional Remarks

RADIO CONTROLLED AIRCRAFT ACTIVITY BELOW 400 FT AGL 2.5 NM SOUTH OF AIRPORT
BIRDS AND WILDLIFE ON AND INVOF ARPT.
FOR CD WHEN ATCT CLSD CTC SOCAL APCH AT 800-448-3724.

Instrument Procedures

NOTE: All procedures below are presented as PDF files. If you need a reader for these files, you should download the free Adobe Reader.

NOT FOR NAVIGATION. Please procure official charts for flight.
FAA instrument procedures published for use from 10 September 2020 at 0901Z to 08 October 2020 at 0900z.

 
STARs - Standard Terminal Arrivals
SETER FIVE **CHANGED**   download (287KB)
ZIGGY SEVEN **CHANGED**   2 pages: [1] [2] (464KB)
 
IAPs - Instrument Approach Procedures
ILS OR LOC RWY 26R **CHANGED**   download (345KB)
RNAV (GPS) RWY 26R   download (321KB)
VOR RWY 26R   download (348KB)
NOTE: Special Alternate Minimums apply   download (18KB)
NOTE: Special Take-Off Minimums/Departure Procedures apply   download (132KB)

Other nearby airports with instrument procedures:

KAJO - Corona Municipal Airport (5 nm S)
KONT - Ontario International Airport (5 nm N)
KCCB - Cable Airport (9 nm N)
KRAL - Riverside Municipal Airport (10 nm E)
KPOC - Brackett Field Airport (10 nm NW)
KRIR - Flabob Airport (11 nm E)
KFUL - Fullerton Municipal Airport (18 nm W)
KRIV - March Air Reserve Base (20 nm E)
 
Loc | Ops | Rwys | IFR | FBO | Links
Com | Nav | Svcs | Stats | Notes

San Bernardino International Airport Authority
 
Area around KCNO (Chino Airport)
 
Road maps at: MapQuest Bing Google
 
Aerial photo
WARNING: Photo may not be current or correct
Aerial photo of KCNO (Chino Airport)
Photo by focalfloght.com
Photo taken 24-May-2019
looking northeast.

Do you have a better or more recent aerial photo of Chino Airport that you would like to share? If so, please send us your photo.

 
Sectional chart

 
Airport diagram
CAUTION: Diagram may not be current
Diagram of KCNO (Chino Airport)
Download PDF
of official airport diagram from the FAA

 
Airport distance calculator
Flying to Chino Airport? Find the distance to fly.

From to KCNO

Sunrise and sunset
Times for 19-Sep-2020
 Local
(UTC-7)
 Zulu
(UTC)
Morning civil twilight06:1313:13
Sunrise06:3813:38
Sunset18:5001:50
Evening civil twilight19:1502:15

Current date and time
Zulu (UTC)  19-Sep-2020 15:46:06
Local (UTC-7)  19-Sep-2020 08:46:06
 
METAR
KCNO 191453Z 00000KT 5SM HZ FU FEW200 22/11 A2990 RMK AO2 SLP119 T02220111 53009
KAJO 
5nm S 
191456Z AUTO 00000KT 10SM CLR 19/11 A2989 RMK AO2 SLP116 T01940111 53008
KONT 
5nm NE 
191453Z 00000KT 8SM CLR 24/07 A2990 RMK AO2 SLP105 HAZY T02390072 53008
KCCB 
9nm N 
119.525 909-985-4731
191535Z AUTO 09004KT 10SM CLR 26/06 A2992 RMK AO2
KRAL 
9nm E 
191453Z 00000KT 10SM CLR 21/09 A2990 RMK AO2 SLP107 T02110089 53008
KPOC 
10nm NW 
191447Z 00000KT 10SM CLR 21/10 A2991
KFUL 
18nm W 
191453Z 11006KT 10SM CLR 22/16 A2987 RMK AO2 SLP113 T02220156 53012
KRIV 
20nm E 
191458Z AUTO 00000KT 10SM CLR 22/07 A2993 RMK AO2 SLP122 T02200066 52010
KEMT 
20nm W 
191445Z 00000KT 8SM CLR 20/13 A2988
TAF
KONT 
5nm NE 
191124Z 1912/2018 VRB04KT P6SM SKC FM192000 26012G20KT P6SM SKC FM200400 VRB04KT P6SM SKC
KRIV 
20nm E 
191200Z 1912/2018 VRB05KT 9999 SKC QNH2988INS BECMG 1919/1920 31009KT 9999 SKC 510009 QNH2982INS TEMPO 1921/2001 31012G18KT BECMG 2003/2004 VRB05KT 9999 SKC QNH2986INS TX36/1921Z TN15/1913Z
NOTAMs
Click for the latest NOTAMs
NOTAMs are issued by the DoD/FAA and will open in a separate window not controlled by AirNav.

 

 
 

FBO, Fuel Providers, and Aircraft Ground Support

  
 Business Name 
 
 Contact 
 
 Services / Description 
 
Fuel Prices
 
Comments
  
Threshold Aviation Group ASRI 128.925
909-606-6164
toll-free 1-866-702-3835
[web site]
[email]

Like us on facebook See us on instagram Follow us on twitter
FBO Services, LEAST EXPENSIVE FUEL in So. California, Interior Completion Center, Turbine & Piston Airframe and Engine Service Center. Short Term "Complementary Ramp" & "1st night Hangar Space w/ min fuel purchase", GPU, Wi-Fi, Management, detailing and washes...NBAA member. GULFSTREAM, HAWKER, FALCON, CESSNA, EMBRAER...
More info and photos of Threshold Aviation Group
 
U.S. Government Contract Fuel   U.S. Government AIR Card   Avfuel Contract Fuel   UVair   World Fuel Contract Fuel   AVTRIP   Enterprise Rent-A-Car   Hertz   Wireless Internet Access (WiFi)   Wheelchair Accessible   National Business Aviation Association  
 
Avfuel
100LL Jet A
FS $4.25 $2.99 
GUARANTEED
 
   2 read write
Chino Fuel Services ASRI 129.775
toll-free 1-800-720-5388
909-597-6566
Aviation fuel, Oxygen service, Aircraft parking (ramp or tiedown), Hangars, Hangar leasing / sales, GPU / Power cart, Passenger terminal and lounge, ...
More info and photos of Chino Fuel Services
 
AirBoss™ fuel program   Enterprise Rent-A-Car   Wireless Internet Access (WiFi)  
 
100LL Jet A
FS $3.90 $2.95 
GUARANTEED
AirBossMEMBERS
ONLY
Discounts
LoginJoin
 
   write
 Flying Tigers Aviation
909-606-3300
909-606-0100
[web site]
[email]

Like us on facebook
Aviation fuel, Aircraft parking (ramp or tiedown), Aircraft cleaning / washing / detailing, Aviation accessories, Catering, Pilot supplies, Rental cars, Courtesy transportation, ...
 
U.S. Government Contract Fuel   U.S. Government AIR Card   CAA Preferred FBO   Phillips 66® Aviation Contract Fuel   World Fuel Contract Fuel   World Fuel Rewards   Contract Fuel  
 
More info about Flying Tigers Aviation
Phillips 66
100LL Jet A
AS $4.20 --- 
FS $4.20 $3.10 
GUARANTEED
 
   4 read write
AS=Assisted/Self Service
FS=Full service
Update Fuel Prices
 

Aviation Businesses, Services, and Facilities

  
 Business Name 
 
 Contact 
 
 Services / Description 
 
Distance
 
Comments
  
DeBritton Aviation, Ltd. 909-597-6187
[web site]
[email]
DeBritton Aviation is here to assist with all your general aviation needs - from single engine piston to heavy jets. Whether you are looking for maintenance, hangar storage, sales/acquisition, management or ground support we are here to help 24/7.
More info and photos of DeBritton Aviation, Ltd.
on airport  
   write
Leading Edge Avionics
Leading Edge Avionics
toll-free 1-855-955-6151
[web site]
[email]

Like us on facebook See us on instagram Follow us on twitter
Leading Edge Avionics is a FAA Certified Part 145 Repair Station (137R236D) that provides outstanding avionics repair and installation services for all General Aviation aircraft from business jets to helicopters to single engine airplanes. We are committed to delivering our customers with services that ensure uncompromised safety and the highest quality of workmanship and reliability, while exceeding our clients' expectations on all levels. 24/7 AOG Service is also available at all Southern California airports, so call us at (855) 955-6151 and let us exceed all your service expectations!
More info and photos of Leading Edge Avionics
located at KSNA  
   write
 DuBois Aviation, Inc.
909-597-6292
[web site]
[email]
*2017 & 2018* AOPA Distinguished Flight School Awards

Since 2008, we have been training pilots & making dreams come true with competitive prices.

We offer flight training for the following:
Private, Instrument, Commercial, Multi Engine, ATP & CFI

Come & Experience our LOCAL or CATALINA ISLAND Dem
 
Jeppesen Authorized Dealer  
 
More info about DuBois Aviation, Inc.
on airport  
   write
Aircraftsman, Inc. 909-393-0884
no information available

If you are affiliated with Aircraftsman, Inc. and would like to show here your services, contact info, web link, logo, and more, click here
on airport  
   write
 

Where to Eat: Catering, Restaurants, Food shops

  
 Business Name 
 
 Contact 
 
 Services / Description 
 
Distance
 
Comments
  
Flo's Airport Cafe 909-597-3416
no information available

If you are affiliated with Flo's Airport Cafe and would like to show here your services, contact info, web link, logo, and more, click here
on airport  
   1 read write
 

Would you like to see your business listed on this page?

 If your business provides an interesting product or service to pilots, flight crews, aircraft, or users of the Chino Airport, you should consider listing it here.  To start the listing process, click on the button below
 
Add a business
 

Other Pages about Chino Airport

cms.sbcounty.gov/...
 
Update a link
 
Copyright © AirNav, LLC. All rights reserved. Privacy Policy  Contact